createdAt,value
2023-02-23T00:02:07.232Z,9.00
2023-02-23T00:04:35.992Z,9.00
2023-02-23T00:07:07.920Z,9.00
2023-02-23T00:09:37.929Z,9.00
2023-02-23T00:12:09.666Z,9.00
2023-02-23T00:14:38.409Z,9.00
2023-02-23T00:17:14.179Z,9.00
2023-02-23T00:19:43.364Z,9.00
2023-02-23T00:22:10.433Z,9.00
2023-02-23T00:24:38.771Z,9.00
2023-02-23T00:27:06.769Z,9.00
2023-02-23T00:29:39.327Z,9.00
2023-02-23T00:32:07.046Z,9.00
2023-02-23T00:34:36.467Z,9.00
2023-02-23T00:37:04.320Z,9.00
2023-02-23T00:39:31.128Z,9.00
2023-02-23T00:42:03.118Z,9.00
2023-02-23T00:44:31.792Z,9.00
2023-02-23T00:46:58.576Z,8.90
2023-02-23T00:49:25.841Z,8.90
2023-02-23T00:51:53.423Z,8.90
2023-02-23T00:54:22.125Z,8.90
2023-02-23T00:56:49.497Z,8.90
2023-02-23T00:59:17.022Z,8.90
2023-02-23T01:01:44.413Z,8.90
2023-02-23T01:04:13.061Z,8.90
2023-02-23T01:06:41.566Z,8.90
2023-02-23T01:09:13.425Z,8.80
2023-02-23T01:11:41.465Z,8.80
2023-02-23T01:14:10.448Z,8.80
2023-02-23T01:16:38.759Z,8.80
2023-02-23T01:19:07.027Z,8.80
2023-02-23T01:21:38.279Z,8.80
2023-02-23T01:24:06.632Z,8.80
2023-02-23T01:26:42.518Z,8.80
2023-02-23T01:29:15.985Z,8.80
2023-02-23T01:31:48.981Z,8.80
2023-02-23T01:34:21.684Z,8.80
2023-02-23T01:36:49.296Z,8.80
2023-02-23T01:39:20.528Z,8.80
2023-02-23T01:41:48.371Z,8.80
2023-02-23T01:44:15.221Z,8.80
2023-02-23T01:46:45.920Z,8.80
2023-02-23T01:49:23.386Z,8.80
2023-02-23T01:51:57.669Z,8.90
2023-02-23T01:54:50.318Z,8.80
2023-02-23T01:57:21.389Z,8.80
2023-02-23T01:59:51.009Z,8.80
2023-02-23T02:02:22.125Z,8.80
2023-02-23T02:04:52.031Z,8.90
2023-02-23T02:07:28.754Z,8.80
2023-02-23T02:10:21.935Z,8.90
2023-02-23T02:12:57.199Z,8.90
2023-02-23T02:15:38.614Z,8.90
2023-02-23T02:18:38.104Z,8.90
2023-02-23T02:21:55.437Z,8.80
2023-02-23T02:25:11.854Z,8.80
2023-02-23T02:28:27.081Z,8.90
2023-02-23T02:31:07.936Z,8.90
2023-02-23T02:34:01.024Z,8.90
2023-02-23T02:37:11.334Z,8.90
2023-02-23T02:40:17.145Z,8.90
2023-02-23T02:43:24.525Z,8.80
2023-02-23T02:46:18.131Z,8.80
2023-02-23T02:49:14.712Z,8.90
2023-02-23T02:51:51.765Z,8.90
2023-02-23T02:54:37.874Z,8.80
2023-02-23T02:57:06.910Z,8.90
2023-02-23T03:00:07.603Z,8.90
2023-02-23T03:02:59.894Z,8.90
2023-02-23T03:06:03.607Z,8.90
2023-02-23T03:09:21.539Z,8.90
2023-02-23T03:13:04.067Z,8.80
2023-02-23T03:16:22.688Z,8.80
2023-02-23T03:19:28.868Z,8.80
2023-02-23T03:22:44.633Z,8.80
2023-02-23T03:25:43.422Z,8.80
2023-02-23T03:28:39.516Z,8.80
2023-02-23T03:31:49.963Z,8.80
2023-02-23T03:34:49.295Z,8.80
2023-02-23T03:37:52.861Z,8.70
2023-02-23T03:40:57.411Z,8.70
2023-02-23T03:43:56.030Z,8.70
2023-02-23T03:46:45.982Z,8.80
2023-02-23T03:49:36.897Z,8.70
2023-02-23T03:52:30.517Z,8.70
2023-02-23T03:55:22.130Z,8.70
2023-02-23T03:58:13.752Z,8.70
2023-02-23T04:01:06.910Z,8.70
2023-02-23T04:03:58.648Z,8.70
2023-02-23T04:06:50.489Z,8.70
2023-02-23T04:09:35.797Z,8.70
2023-02-23T04:12:47.301Z,8.70
2023-02-23T04:15:41.073Z,8.70
2023-02-23T04:18:14.726Z,8.70
2023-02-23T04:20:41.909Z,8.70
2023-02-23T04:23:09.024Z,8.70
2023-02-23T04:25:36.202Z,8.70
2023-02-23T04:28:03.588Z,8.70
2023-02-23T04:30:30.703Z,8.70
2023-02-23T04:32:59.143Z,8.70
2023-02-23T04:35:28.594Z,8.70
2023-02-23T04:37:56.026Z,8.80
2023-02-23T04:40:24.388Z,8.80
2023-02-23T04:42:51.474Z,8.70
2023-02-23T04:45:18.714Z,8.70
2023-02-23T04:47:45.877Z,8.70
2023-02-23T04:50:13.889Z,8.70
2023-02-23T04:52:41.348Z,8.70
2023-02-23T04:55:16.754Z,8.70
2023-02-23T04:57:43.748Z,8.70
2023-02-23T05:00:11.750Z,8.70
2023-02-23T05:02:39.169Z,8.70
2023-02-23T05:05:09.214Z,8.70
2023-02-23T05:07:37.128Z,8.80
2023-02-23T05:10:06.273Z,8.70
2023-02-23T05:12:33.157Z,8.70
2023-02-23T05:14:59.973Z,8.70
2023-02-23T05:17:26.860Z,8.70
2023-02-23T05:19:53.679Z,8.70
2023-02-23T05:22:20.645Z,8.70
2023-02-23T05:24:47.574Z,8.70
2023-02-23T05:27:15.370Z,8.70
2023-02-23T05:29:42.180Z,8.70
2023-02-23T05:32:09.185Z,8.70
2023-02-23T05:34:36.697Z,8.60
2023-02-23T05:37:03.503Z,8.70
2023-02-23T05:39:30.529Z,8.60
2023-02-23T05:41:57.290Z,8.70
2023-02-23T05:44:25.032Z,8.70
2023-02-23T05:46:52.133Z,8.70
2023-02-23T05:49:18.978Z,8.70
2023-02-23T05:51:45.798Z,8.70
2023-02-23T05:54:13.937Z,8.70
2023-02-23T05:56:42.485Z,8.70
2023-02-23T05:59:09.621Z,8.70
2023-02-23T06:01:36.658Z,8.70
2023-02-23T06:04:05.303Z,8.70
2023-02-23T06:06:33.081Z,8.60
2023-02-23T06:09:00.188Z,8.60
2023-02-23T06:11:27.112Z,8.60
2023-02-23T06:13:53.939Z,8.60
2023-02-23T06:16:21.085Z,8.60
2023-02-23T06:18:48.140Z,8.60
2023-02-23T06:21:15.020Z,8.60
2023-02-23T06:23:41.950Z,8.60
2023-02-23T06:26:09.120Z,8.60
2023-02-23T06:28:36.453Z,8.60
2023-02-23T06:31:03.607Z,8.60
2023-02-23T06:33:30.535Z,8.60
2023-02-23T06:35:57.394Z,8.60
2023-02-23T06:38:24.223Z,8.60
2023-02-23T06:40:51.195Z,8.60
2023-02-23T06:43:18.116Z,8.70
2023-02-23T06:45:46.818Z,8.70
2023-02-23T06:48:13.705Z,8.70
2023-02-23T06:50:40.636Z,8.70
2023-02-23T06:53:07.520Z,8.70
2023-02-23T06:55:34.403Z,8.70
2023-02-23T06:58:01.213Z,8.70
2023-02-23T07:00:28.056Z,8.70
2023-02-23T07:02:56.569Z,8.70
2023-02-23T07:05:23.598Z,8.70
2023-02-23T07:07:50.429Z,8.70
2023-02-23T07:10:18.573Z,8.70
2023-02-23T07:12:45.525Z,8.70
2023-02-23T07:15:12.569Z,8.70
2023-02-23T07:17:39.618Z,8.80
2023-02-23T07:20:07.317Z,8.70
2023-02-23T07:22:34.288Z,8.70
2023-02-23T07:25:01.181Z,8.70
2023-02-23T07:27:28.193Z,8.70
2023-02-23T07:29:55.026Z,8.70
2023-02-23T07:32:22.146Z,8.80
2023-02-23T07:34:49.106Z,8.80
2023-02-23T07:37:17.674Z,8.80
2023-02-23T07:39:44.542Z,8.80
2023-02-23T07:42:11.414Z,8.80
2023-02-23T07:44:39.092Z,8.90
2023-02-23T07:47:07.203Z,8.90
2023-02-23T07:49:34.592Z,8.90
2023-02-23T07:52:01.613Z,8.90
2023-02-23T07:54:28.576Z,8.90
2023-02-23T07:56:55.526Z,8.90
2023-02-23T07:59:22.488Z,8.90
2023-02-23T08:01:49.619Z,8.90
2023-02-23T08:04:16.580Z,8.90
2023-02-23T08:06:43.422Z,8.90
2023-02-23T08:09:12.153Z,8.90
2023-02-23T08:11:39.499Z,8.90
2023-02-23T08:14:06.296Z,9.00
2023-02-23T08:16:34.340Z,9.00
2023-02-23T08:19:02.127Z,9.00
2023-02-23T08:21:31.327Z,9.00
2023-02-23T08:23:58.801Z,9.00
2023-02-23T08:26:26.572Z,9.00
2023-02-23T08:28:54.621Z,9.00
2023-02-23T08:31:24.159Z,9.10
2023-02-23T08:33:52.809Z,9.10
2023-02-23T08:36:23.217Z,9.10
2023-02-23T08:38:50.563Z,9.20
2023-02-23T08:41:17.969Z,9.10
2023-02-23T08:43:45.139Z,9.20
2023-02-23T08:46:12.739Z,9.20
2023-02-23T08:48:40.418Z,9.20
2023-02-23T08:51:08.243Z,9.20
2023-02-23T08:53:35.694Z,9.20
2023-02-23T08:56:06.601Z,9.20
2023-02-23T08:58:36.309Z,9.20
2023-02-23T09:01:03.995Z,9.30
2023-02-23T09:03:31.863Z,9.20
2023-02-23T09:06:07.756Z,9.30
2023-02-23T09:08:34.714Z,9.20
2023-02-23T09:11:01.533Z,9.30
2023-02-23T09:13:28.340Z,9.30
2023-02-23T09:15:55.243Z,9.40
2023-02-23T09:18:23.892Z,9.40
2023-02-23T09:20:51.335Z,9.50
2023-02-23T09:23:18.183Z,9.40
2023-02-23T09:25:46.203Z,9.50
2023-02-23T09:28:19.350Z,9.60
2023-02-23T09:30:47.338Z,9.50
2023-02-23T09:33:14.970Z,9.60
2023-02-23T09:35:41.849Z,9.60
2023-02-23T09:38:09.636Z,9.60
2023-02-23T09:40:53.087Z,9.60
2023-02-23T09:43:44.729Z,9.60
2023-02-23T09:46:33.468Z,9.60
2023-02-23T09:49:05.378Z,9.60
2023-02-23T09:51:41.534Z,9.60
2023-02-23T09:54:14.213Z,9.60
2023-02-23T09:56:46.403Z,9.70
2023-02-23T09:59:21.126Z,9.80
2023-02-23T10:01:48.021Z,9.70
2023-02-23T10:05:11.736Z,9.70
2023-02-23T10:07:55.857Z,9.70
2023-02-23T10:10:49.174Z,9.80
2023-02-23T10:13:51.412Z,9.70
2023-02-23T10:16:51.196Z,9.70
2023-02-23T10:19:27.278Z,9.70
2023-02-23T10:22:03.883Z,9.70
2023-02-23T10:24:38.292Z,9.80
2023-02-23T10:27:16.452Z,9.70
2023-02-23T10:29:51.423Z,9.70
2023-02-23T10:32:45.847Z,9.70
2023-02-23T10:35:17.452Z,9.70
2023-02-23T10:37:46.390Z,9.80
2023-02-23T10:40:28.842Z,9.80
2023-02-23T10:42:59.829Z,9.80
2023-02-23T10:45:29.799Z,9.80
2023-02-23T10:48:07.699Z,9.80
2023-02-23T10:50:39.130Z,9.80
2023-02-23T10:53:24.383Z,9.90
2023-02-23T10:56:16.531Z,10.00
2023-02-23T10:58:57.278Z,10.00
2023-02-23T11:02:00.504Z,10.00
2023-02-23T11:04:32.011Z,10.00
2023-02-23T11:07:29.487Z,10.00
2023-02-23T11:09:58.854Z,10.10
2023-02-23T11:12:36.680Z,10.20
2023-02-23T11:15:49.286Z,10.20
2023-02-23T11:18:26.322Z,10.10
2023-02-23T11:20:54.546Z,10.10
2023-02-23T11:23:29.531Z,10.00
2023-02-23T11:26:28.788Z,10.00
2023-02-23T11:29:01.928Z,10.00
2023-02-23T11:31:34.890Z,10.00
2023-02-23T11:34:06.603Z,9.80
2023-02-23T11:36:38.015Z,9.80
2023-02-23T11:39:16.755Z,9.90
2023-02-23T11:41:43.657Z,9.80
2023-02-23T11:44:23.833Z,9.80
2023-02-23T11:46:52.260Z,9.80
2023-02-23T11:49:31.022Z,9.80
2023-02-23T11:51:59.348Z,9.70
2023-02-23T11:54:35.344Z,9.70
2023-02-23T11:57:02.728Z,9.80
2023-02-23T11:59:33.321Z,9.80
2023-02-23T12:02:23.357Z,9.70
2023-02-23T12:05:07.142Z,9.80
2023-02-23T12:07:59.863Z,9.80
2023-02-23T12:10:57.833Z,9.80
2023-02-23T12:13:53.884Z,9.80
2023-02-23T12:16:39.961Z,9.90
2023-02-23T12:19:50.205Z,10.00
2023-02-23T12:22:27.087Z,10.00
2023-02-23T12:25:04.972Z,10.00
2023-02-23T12:27:50.375Z,10.10
2023-02-23T12:30:38.677Z,10.10
2023-02-23T12:33:17.979Z,10.00
2023-02-23T12:36:38.743Z,10.10
2023-02-23T12:39:18.543Z,10.00
2023-02-23T12:42:24.816Z,10.00
2023-02-23T12:44:58.714Z,10.00
2023-02-23T12:47:48.513Z,10.00
2023-02-23T12:50:33.787Z,10.00
2023-02-23T12:53:42.157Z,10.00
2023-02-23T12:56:56.596Z,10.00
2023-02-23T12:59:41.653Z,10.10
2023-02-23T13:03:02.871Z,10.20
2023-02-23T13:05:41.436Z,10.30
2023-02-23T13:08:41.751Z,10.20
2023-02-23T13:11:36.129Z,10.30
2023-02-23T13:14:32.860Z,10.30
2023-02-23T13:17:04.595Z,10.40
2023-02-23T13:19:43.807Z,10.50
2023-02-23T13:22:46.155Z,10.40
2023-02-23T13:26:10.540Z,10.50
2023-02-23T13:29:01.222Z,10.30
2023-02-23T13:31:35.222Z,10.40
2023-02-23T13:34:06.991Z,10.30
2023-02-23T13:36:36.737Z,10.20
2023-02-23T13:39:45.143Z,10.20
2023-02-23T13:42:28.047Z,10.30
2023-02-23T13:45:00.026Z,10.40
2023-02-23T13:47:52.787Z,10.40
2023-02-23T13:50:51.574Z,10.30
2023-02-23T13:53:41.972Z,10.20
2023-02-23T13:56:19.775Z,10.30
2023-02-23T13:58:53.525Z,10.30
2023-02-23T14:01:32.733Z,10.20
2023-02-23T14:04:04.433Z,10.20
2023-02-23T14:06:34.522Z,10.20
2023-02-23T14:09:13.119Z,10.20
2023-02-23T14:11:53.821Z,10.10
2023-02-23T14:14:33.120Z,10.10
2023-02-23T14:17:35.029Z,10.10
2023-02-23T14:20:13.396Z,10.00
2023-02-23T14:23:20.189Z,10.00
2023-02-23T14:25:52.528Z,10.00
2023-02-23T14:28:32.480Z,10.00
2023-02-23T14:31:11.467Z,10.00
2023-02-23T14:33:48.474Z,10.10
2023-02-23T14:36:24.199Z,10.00
2023-02-23T14:39:06.574Z,10.10
2023-02-23T14:41:53.097Z,10.10
2023-02-23T14:44:30.202Z,10.10
2023-02-23T14:47:08.568Z,10.20
2023-02-23T14:50:00.283Z,10.20
2023-02-23T14:52:40.666Z,10.20
2023-02-23T14:55:29.478Z,10.30
2023-02-23T14:57:58.063Z,10.30
2023-02-23T15:00:32.316Z,10.00
2023-02-23T15:03:12.289Z,10.00
2023-02-23T15:05:52.547Z,10.10
2023-02-23T15:08:24.489Z,9.90
2023-02-23T15:11:09.953Z,9.90
2023-02-23T15:13:42.549Z,9.90
2023-02-23T15:16:23.931Z,9.90
2023-02-23T15:18:51.815Z,9.80
2023-02-23T15:21:22.844Z,9.60
2023-02-23T15:23:58.474Z,9.60
2023-02-23T15:26:34.832Z,9.60
2023-02-23T15:29:24.970Z,9.60
2023-02-23T15:31:55.730Z,9.60
2023-02-23T15:34:27.437Z,9.40
2023-02-23T15:37:07.612Z,9.30
2023-02-23T15:39:48.836Z,9.20
2023-02-23T15:42:23.661Z,9.10
2023-02-23T15:45:05.553Z,9.00
2023-02-23T15:47:37.116Z,9.00
2023-02-23T15:50:34.911Z,8.90
2023-02-23T15:53:21.189Z,8.80
2023-02-23T15:55:48.653Z,8.80
2023-02-23T15:58:24.166Z,8.70
2023-02-23T16:00:59.544Z,8.70
2023-02-23T16:03:34.753Z,8.60
2023-02-23T16:06:01.716Z,8.50
2023-02-23T16:08:30.019Z,8.50
2023-02-23T16:11:19.129Z,8.40
2023-02-23T16:13:46.884Z,8.50
2023-02-23T16:16:20.270Z,8.40
2023-02-23T16:18:55.122Z,8.40
2023-02-23T16:21:25.166Z,8.40
2023-02-23T16:23:55.279Z,8.40
2023-02-23T16:26:35.938Z,8.50
2023-02-23T16:29:04.818Z,8.50
2023-02-23T16:31:44.123Z,8.40
2023-02-23T16:34:34.234Z,8.40
2023-02-23T16:37:15.600Z,8.40
2023-02-23T16:39:42.458Z,8.50
2023-02-23T16:42:32.854Z,8.40
2023-02-23T16:45:00.528Z,8.30
2023-02-23T16:47:36.211Z,8.30
2023-02-23T16:50:20.308Z,8.30
2023-02-23T16:52:51.906Z,8.30
2023-02-23T16:55:26.400Z,8.30
2023-02-23T16:58:03.789Z,8.10
2023-02-23T17:00:33.282Z,8.10
2023-02-23T17:03:00.991Z,8.10
2023-02-23T17:05:30.075Z,8.00
2023-02-23T17:07:58.826Z,8.00
2023-02-23T17:10:33.385Z,8.00
2023-02-23T17:13:07.470Z,8.00
2023-02-23T17:15:38.772Z,8.00
2023-02-23T17:18:06.354Z,8.10
2023-02-23T17:20:33.953Z,8.00
2023-02-23T17:23:02.610Z,8.00
2023-02-23T17:25:29.880Z,7.90
2023-02-23T17:27:58.483Z,7.80
2023-02-23T17:30:27.073Z,7.80
2023-02-23T17:32:57.262Z,7.80
2023-02-23T17:35:25.606Z,7.70
2023-02-23T17:37:54.068Z,7.80
2023-02-23T17:40:26.397Z,7.80
2023-02-23T17:42:54.282Z,7.80
2023-02-23T17:45:22.549Z,7.80
2023-02-23T17:47:49.750Z,7.80
2023-02-23T17:50:19.956Z,7.80
2023-02-23T17:52:48.752Z,7.80
2023-02-23T17:55:16.680Z,7.60
2023-02-23T17:57:46.418Z,7.70
2023-02-23T18:00:16.546Z,7.60
2023-02-23T18:02:45.258Z,7.60
2023-02-23T18:05:15.238Z,7.70
2023-02-23T18:07:42.875Z,7.60
2023-02-23T18:10:11.207Z,7.60
2023-02-23T18:12:38.161Z,7.60
2023-02-23T18:15:05.777Z,7.60
2023-02-23T18:17:33.678Z,7.60
2023-02-23T18:20:00.922Z,7.60
2023-02-23T18:22:27.860Z,7.60
2023-02-23T18:24:56.574Z,7.60
2023-02-23T18:27:24.569Z,7.50
2023-02-23T18:29:51.545Z,7.50
2023-02-23T18:32:18.651Z,7.50
2023-02-23T18:34:45.553Z,7.50
2023-02-23T18:37:12.351Z,7.50
2023-02-23T18:39:39.250Z,7.50
2023-02-23T18:42:06.721Z,7.50
2023-02-23T18:44:35.239Z,7.50
2023-02-23T18:47:02.445Z,7.50
2023-02-23T18:49:29.267Z,7.50
2023-02-23T18:51:56.552Z,7.50
2023-02-23T18:54:26.029Z,7.50
2023-02-23T18:56:54.361Z,7.50
2023-02-23T18:59:21.224Z,7.50
2023-02-23T19:01:49.111Z,7.50
2023-02-23T19:04:16.122Z,7.50
2023-02-23T19:06:47.112Z,7.50
2023-02-23T19:09:14.321Z,7.50
2023-02-23T19:11:43.172Z,7.40
2023-02-23T19:14:16.010Z,7.40
2023-02-23T19:16:43.661Z,7.20
2023-02-23T19:19:11.312Z,7.20
2023-02-23T19:21:38.876Z,7.20
2023-02-23T19:24:07.181Z,7.20
2023-02-23T19:26:37.336Z,7.10
2023-02-23T19:29:04.859Z,7.00
2023-02-23T19:31:31.991Z,7.00
2023-02-23T19:33:59.805Z,6.90
2023-02-23T19:36:33.676Z,6.90
2023-02-23T19:39:10.539Z,6.80
2023-02-23T19:41:40.473Z,6.90
2023-02-23T19:44:07.862Z,6.90
2023-02-23T19:46:36.684Z,6.80
2023-02-23T19:49:04.532Z,6.90
2023-02-23T19:51:31.795Z,6.90
2023-02-23T19:53:59.592Z,6.90
2023-02-23T19:56:27.954Z,6.90
2023-02-23T19:58:56.909Z,6.90
2023-02-23T20:01:27.598Z,7.00
2023-02-23T20:04:01.577Z,7.00
2023-02-23T20:06:41.078Z,6.90
2023-02-23T20:09:09.068Z,7.00
2023-02-23T20:11:35.968Z,6.90
2023-02-23T20:14:04.975Z,6.90
2023-02-23T20:16:32.004Z,6.90
2023-02-23T20:18:59.420Z,6.80
2023-02-23T20:21:30.461Z,6.70
2023-02-23T20:23:58.106Z,6.60
2023-02-23T20:26:35.183Z,6.50
2023-02-23T20:29:06.647Z,6.40
2023-02-23T20:31:36.232Z,6.40
2023-02-23T20:34:07.703Z,6.30
2023-02-23T20:36:35.034Z,6.30
2023-02-23T20:39:02.418Z,6.20
2023-02-23T20:41:31.440Z,6.10
2023-02-23T20:44:00.693Z,6.00
2023-02-23T20:46:30.850Z,6.00
2023-02-23T20:48:59.228Z,5.90
2023-02-23T20:51:26.903Z,5.90
2023-02-23T20:53:53.750Z,5.80
2023-02-23T20:56:21.908Z,5.80
2023-02-23T20:58:49.050Z,5.80
2023-02-23T21:01:22.553Z,5.80
2023-02-23T21:03:51.446Z,5.70
2023-02-23T21:06:20.865Z,5.70
2023-02-23T21:08:55.462Z,5.70
2023-02-23T21:11:26.848Z,5.60
2023-02-23T21:13:53.971Z,5.60
2023-02-23T21:16:23.580Z,5.50
2023-02-23T21:19:03.815Z,5.50
2023-02-23T21:21:50.698Z,5.40
2023-02-23T21:24:19.813Z,5.40
2023-02-23T21:26:46.812Z,5.30
2023-02-23T21:29:16.307Z,5.30
2023-02-23T21:31:46.322Z,5.20
2023-02-23T21:34:18.556Z,5.20
2023-02-23T21:36:46.255Z,5.10
2023-02-23T21:39:13.199Z,5.00
2023-02-23T21:41:41.372Z,5.00
2023-02-23T21:44:08.856Z,4.90
2023-02-23T21:46:36.528Z,4.90
2023-02-23T21:49:09.862Z,4.90
2023-02-23T21:51:37.336Z,4.90
2023-02-23T21:54:05.383Z,4.90
2023-02-23T21:56:36.617Z,4.80
2023-02-23T21:59:06.132Z,4.80
2023-02-23T22:01:37.340Z,4.70
2023-02-23T22:04:07.638Z,4.60
2023-02-23T22:06:44.301Z,4.50
2023-02-23T22:09:12.608Z,4.40
2023-02-23T22:11:46.070Z,4.40
2023-02-23T22:14:16.375Z,4.40
2023-02-23T22:16:44.047Z,4.30
2023-02-23T22:19:12.432Z,4.30
2023-02-23T22:21:44.503Z,4.20
2023-02-23T22:24:14.146Z,4.20
2023-02-23T22:26:54.513Z,4.20
2023-02-23T22:29:24.851Z,4.10
2023-02-23T22:31:53.047Z,4.10
2023-02-23T22:34:20.196Z,4.00
2023-02-23T22:36:48.421Z,4.00
2023-02-23T22:39:16.371Z,4.00
2023-02-23T22:41:44.366Z,3.90
2023-02-23T22:44:16.744Z,3.80
2023-02-23T22:46:47.949Z,3.80
2023-02-23T22:49:15.923Z,3.80
2023-02-23T22:51:43.888Z,3.80
2023-02-23T22:54:11.664Z,3.80
2023-02-23T22:56:39.589Z,3.70
2023-02-23T22:59:08.645Z,3.60
2023-02-23T23:01:38.747Z,3.60
2023-02-23T23:04:12.378Z,3.60
2023-02-23T23:06:42.880Z,3.60
2023-02-23T23:09:12.219Z,3.60
2023-02-23T23:11:42.958Z,3.60
2023-02-23T23:14:11.381Z,3.40
2023-02-23T23:16:47.956Z,3.30
2023-02-23T23:19:22.543Z,3.40
2023-02-23T23:21:55.049Z,3.40
2023-02-23T23:24:24.929Z,3.30
2023-02-23T23:26:55.525Z,3.20
2023-02-23T23:29:25.709Z,3.20
2023-02-23T23:31:53.526Z,3.10
2023-02-23T23:34:21.744Z,3.20
2023-02-23T23:36:50.261Z,3.10
2023-02-23T23:39:20.675Z,3.00
2023-02-23T23:41:49.766Z,3.10
2023-02-23T23:44:21.349Z,3.10
2023-02-23T23:46:52.772Z,3.10
2023-02-23T23:49:25.488Z,3.00
2023-02-23T23:51:58.737Z,3.10
2023-02-23T23:54:33.550Z,3.10
2023-02-23T23:57:01.535Z,3.20
2023-02-23T23:59:28.568Z,3.10
